CheckWX is a tool to help pilots better visualize weather data.  It is not intended as a substitute for an official pre-flight weather briefing.

03:17:47 UTC

CYXS TAF
Prince George Airport
Prince George, Canada
TAF AMD CYXS 290205Z 2902/2913 35008KT 1/8SM +SN FG BKN003 OVC015 TEMPO 2902/2909 5SM -SN SCT015 OVC025 FM290900 32007KT P6SM -SN SCT015 OVC030 TEMPO 2909/2913 2SM -SN OVC015 RMK FCST BASED ON AUTO OBS. NXT FCST BY 290700Z

Feb-29@
02:00 UTC

Feb-29 @ 02:00 UTC

Feb-29@
09:00 UTC

Feb-29 @ 09:00 UTC

TAF AMD CYXS 290205Z 2902/2913 35008KT 1/8SM +SN FG BKN003 OVC015
Wind
  • 350° at 8 KTS
Conditions
Heavy Snow, Fog
Cloud Levels
  • Broken at 300' AGL
  • Overcast at 1,500' AGL

Feb-29@
02:00 UTC

Feb-29 @ 02:00 UTC

Feb-29@
09:00 UTC

Feb-29 @ 09:00 UTC

TEMPO 2902/2909 5SM -SN SCT015 OVC025

Temporary

Temporary Changes expected for less than half the time period

Conditions
Light Snow
Cloud Levels
  • Scattered at 1,500' AGL
  • Overcast at 2,500' AGL

Feb-29@
09:00 UTC

Feb-29 @ 09:00 UTC

Feb-29@
13:00 UTC

Feb-29 @ 13:00 UTC

FM290900 32007KT P6SM -SN SCT015 OVC030

From

From Standard forecast or significant change

Wind
  • 320° at 7 KTS
Conditions
Light Snow
Cloud Levels
  • Scattered at 1,500' AGL
  • Overcast at 3,000' AGL

Feb-29@
09:00 UTC

Feb-29 @ 09:00 UTC

Feb-29@
13:00 UTC

Feb-29 @ 13:00 UTC

TEMPO 2909/2913 2SM -SN OVC015 RMK FCST BASED ON AUTO OBS. NXT FCST BY 290700Z

Temporary

Temporary Changes expected for less than half the time period

Conditions
Light Snow
Cloud Levels
  • Overcast at 1,500' AGL